createdAt,value
2022-11-14T00:01:12.896Z,95095.16
2022-11-14T00:03:58.444Z,95095.97
2022-11-14T00:06:43.717Z,95105.06
2022-11-14T00:09:29.227Z,95101.09
2022-11-14T00:12:14.455Z,95100.19
2022-11-14T00:15:00.000Z,95097.75
2022-11-14T00:17:45.129Z,95092.03
2022-11-14T00:20:30.272Z,95079.00
2022-11-14T00:23:15.836Z,95075.63
2022-11-14T00:26:00.912Z,95066.72
2022-11-14T00:28:46.264Z,95079.91
2022-11-14T00:31:31.544Z,95073.47
2022-11-14T00:34:16.736Z,95067.25
2022-11-14T00:37:02.152Z,95073.28
2022-11-14T00:39:47.563Z,95080.13
2022-11-14T00:42:34.541Z,95083.28
2022-11-14T00:45:19.828Z,95065.25
2022-11-14T00:48:05.256Z,95061.56
2022-11-14T00:50:50.637Z,95070.44
2022-11-14T00:53:36.160Z,95076.75
2022-11-14T00:56:21.222Z,95092.56
2022-11-14T00:59:06.565Z,95092.06
2022-11-14T01:01:56.645Z,95105.81
2022-11-14T01:04:43.069Z,95104.91
2022-11-14T01:07:28.394Z,95097.94
2022-11-14T01:10:13.616Z,95101.94
2022-11-14T01:12:58.962Z,95112.06
2022-11-14T01:15:47.036Z,95106.97
2022-11-14T01:18:32.124Z,95103.41
2022-11-14T01:21:17.904Z,95105.75
2022-11-14T01:24:03.193Z,95109.63
2022-11-14T01:26:48.409Z,95103.66
2022-11-14T01:29:33.704Z,95105.09
2022-11-14T01:32:18.911Z,95108.75
2022-11-14T01:35:04.429Z,95102.97
2022-11-14T01:37:49.716Z,95109.47
2022-11-14T01:40:41.075Z,95107.97
2022-11-14T01:43:28.636Z,95109.19
2022-11-14T01:46:32.005Z,95104.66
2022-11-14T01:49:34.816Z,95100.59
2022-11-14T01:52:31.262Z,95094.25
2022-11-14T01:55:16.523Z,95090.09
2022-11-14T01:58:01.930Z,95084.28
2022-11-14T02:00:47.445Z,95085.72
2022-11-14T02:03:35.831Z,95080.91
2022-11-14T02:06:23.875Z,95070.00
2022-11-14T02:09:09.256Z,95060.53
2022-11-14T02:11:57.491Z,95063.91
2022-11-14T02:14:45.660Z,95071.41
2022-11-14T02:17:31.375Z,95054.63
2022-11-14T02:20:28.595Z,95052.50
2022-11-14T02:23:14.914Z,95055.25
2022-11-14T02:25:59.928Z,95056.69
2022-11-14T02:28:45.424Z,95058.19
2022-11-14T02:31:30.438Z,95056.38
2022-11-14T02:34:19.906Z,95055.75
2022-11-14T02:37:06.421Z,95057.09
2022-11-14T02:39:51.846Z,95051.06
2022-11-14T02:42:37.182Z,95051.19
2022-11-14T02:45:22.854Z,95054.94
2022-11-14T02:48:08.069Z,95044.16
2022-11-14T02:50:53.335Z,95036.31
2022-11-14T02:53:38.733Z,95026.84
2022-11-14T02:56:23.744Z,95021.63
2022-11-14T02:59:09.011Z,95010.22
2022-11-14T03:01:54.269Z,95004.00
2022-11-14T03:04:39.635Z,95006.97
2022-11-14T03:07:24.778Z,95003.81
2022-11-14T03:10:10.115Z,95000.84
2022-11-14T03:12:56.129Z,95006.25
2022-11-14T03:15:41.138Z,94995.03
2022-11-14T03:18:26.437Z,95000.44
2022-11-14T03:21:17.165Z,95002.97
2022-11-14T03:24:02.464Z,95016.03
2022-11-14T03:26:47.843Z,95015.31
2022-11-14T03:29:33.176Z,95019.91
2022-11-14T03:32:18.573Z,95013.28
2022-11-14T03:35:04.235Z,95013.28
2022-11-14T03:37:51.749Z,95023.88
2022-11-14T03:40:40.832Z,95022.66
2022-11-14T03:43:29.742Z,95020.09
2022-11-14T03:46:14.806Z,95018.78
2022-11-14T03:48:59.782Z,95013.69
2022-11-14T03:51:45.077Z,95009.91
2022-11-14T03:54:30.189Z,95015.94
2022-11-14T03:57:18.374Z,95014.81
2022-11-14T04:00:04.453Z,95008.78
2022-11-14T04:02:49.641Z,95005.34
2022-11-14T04:05:34.645Z,94998.22
2022-11-14T04:08:19.845Z,95012.34
2022-11-14T04:11:05.398Z,95018.91
2022-11-14T04:13:50.664Z,95014.81
2022-11-14T04:16:35.954Z,95013.47
2022-11-14T04:19:21.045Z,95011.66
2022-11-14T04:22:06.342Z,94997.50
2022-11-14T04:24:51.646Z,95001.03
2022-11-14T04:27:36.853Z,95009.19
2022-11-14T04:30:22.074Z,95010.81
2022-11-14T04:33:07.683Z,95004.09
2022-11-14T04:35:52.673Z,95001.75
2022-11-14T04:38:39.329Z,94994.84
2022-11-14T04:41:24.258Z,94998.22
2022-11-14T04:44:09.691Z,94991.06
2022-11-14T04:46:55.107Z,94989.03
2022-11-14T04:49:40.287Z,94975.78
2022-11-14T04:52:25.677Z,94984.72
2022-11-14T04:55:10.635Z,94988.06
2022-11-14T04:57:58.244Z,94997.50
2022-11-14T05:00:43.231Z,94995.16
2022-11-14T05:03:29.215Z,94999.97
2022-11-14T05:06:14.663Z,94995.50
2022-11-14T05:08:59.796Z,94985.44
2022-11-14T05:11:45.052Z,94999.09
2022-11-14T05:14:31.717Z,94984.97
2022-11-14T05:17:16.702Z,94996.25
2022-11-14T05:20:02.040Z,94990.34
2022-11-14T05:22:47.241Z,94990.63
2022-11-14T05:25:32.514Z,95007.91
2022-11-14T05:28:17.571Z,95005.22
2022-11-14T05:31:04.200Z,95005.31
2022-11-14T05:33:50.260Z,95011.69
2022-11-14T05:36:35.359Z,95009.59
2022-11-14T05:39:20.653Z,95023.63
2022-11-14T05:42:06.294Z,95015.75
2022-11-14T05:44:56.890Z,95003.81
2022-11-14T05:47:41.891Z,95007.91
2022-11-14T05:50:26.936Z,95015.44
2022-11-14T05:53:12.161Z,95008.53
2022-11-14T05:56:10.418Z,95016.34
2022-11-14T05:58:55.412Z,95017.25
2022-11-14T06:01:40.737Z,95025.19
2022-11-14T06:04:25.938Z,95023.63
2022-11-14T06:07:13.197Z,95026.06
2022-11-14T06:10:00.852Z,95024.72
2022-11-14T06:12:45.844Z,95024.72
2022-11-14T06:15:31.036Z,95028.19
2022-11-14T06:18:16.588Z,95038.38
2022-11-14T06:21:03.151Z,95041.28
2022-11-14T06:23:49.464Z,95042.66
2022-11-14T06:26:34.765Z,95049.84
2022-11-14T06:29:19.896Z,95053.47
2022-11-14T06:32:05.211Z,95047.78
2022-11-14T06:34:50.547Z,95054.38
2022-11-14T06:37:37.322Z,95055.00
2022-11-14T06:40:22.496Z,95052.28
2022-11-14T06:43:07.789Z,95052.50
2022-11-14T06:45:56.145Z,95056.03
2022-11-14T06:48:41.621Z,95062.09
2022-11-14T06:51:26.745Z,95063.75
2022-11-14T06:54:12.578Z,95071.78
2022-11-14T06:56:57.438Z,95070.50
2022-11-14T06:59:42.575Z,95070.25
2022-11-14T07:02:27.814Z,95074.97
2022-11-14T07:05:13.936Z,95060.47
2022-11-14T07:07:59.117Z,95059.38
2022-11-14T07:10:44.486Z,95053.47
2022-11-14T07:13:31.257Z,95048.38
2022-11-14T07:16:16.600Z,95039.75
2022-11-14T07:19:04.210Z,95031.28
2022-11-14T07:21:49.386Z,95026.66
2022-11-14T07:24:35.161Z,95028.53
2022-11-14T07:27:20.359Z,95025.59
2022-11-14T07:30:06.506Z,95028.03
2022-11-14T07:32:58.252Z,95023.16
2022-11-14T07:35:43.568Z,95022.53
2022-11-14T07:38:31.117Z,95022.13
2022-11-14T07:41:18.096Z,95010.06
2022-11-14T07:44:03.324Z,95010.63
2022-11-14T07:46:50.098Z,95010.69
2022-11-14T07:49:35.401Z,95014.28
2022-11-14T07:52:20.791Z,95018.78
2022-11-14T07:55:06.540Z,95020.91
2022-11-14T07:57:55.331Z,95022.19
2022-11-14T08:00:40.909Z,95027.34
2022-11-14T08:03:25.946Z,95021.84
2022-11-14T08:06:13.107Z,95026.22
2022-11-14T08:08:58.420Z,95027.34
2022-11-14T08:11:49.847Z,95029.75
2022-11-14T08:14:35.204Z,95043.75
2022-11-14T08:17:21.751Z,95042.56
2022-11-14T08:20:08.892Z,95030.34
2022-11-14T08:22:55.031Z,95025.00
2022-11-14T08:25:41.507Z,95013.78
2022-11-14T08:28:26.368Z,95010.59
2022-11-14T08:31:13.565Z,95018.19
2022-11-14T08:33:58.517Z,95012.50
2022-11-14T08:36:43.588Z,95009.44
2022-11-14T08:39:29.541Z,95008.78
2022-11-14T08:42:14.736Z,95002.50
2022-11-14T08:45:00.401Z,95009.31
2022-11-14T08:47:51.700Z,95003.88
2022-11-14T08:50:36.434Z,94996.91
2022-11-14T08:53:22.010Z,95007.06
2022-11-14T08:56:08.780Z,95004.09
2022-11-14T08:58:53.773Z,95008.81
2022-11-14T09:01:39.142Z,95004.16
2022-11-14T09:04:24.429Z,94988.81
2022-11-14T09:07:09.783Z,94995.13
2022-11-14T09:09:55.066Z,94990.25
2022-11-14T09:12:40.189Z,95003.44
2022-11-14T09:15:27.383Z,95000.16
2022-11-14T09:18:12.560Z,94991.31
2022-11-14T09:21:06.527Z,94992.44
2022-11-14T09:23:51.725Z,95001.75
2022-11-14T09:26:37.190Z,95006.78
2022-11-14T09:29:22.448Z,95010.50
2022-11-14T09:32:07.799Z,95015.72
2022-11-14T09:34:53.077Z,95011.91
2022-11-14T09:37:39.341Z,94998.16
2022-11-14T09:40:24.637Z,94996.25
2022-11-14T09:43:15.320Z,95001.06
2022-11-14T09:46:01.422Z,94993.47
2022-11-14T09:48:46.632Z,95014.16
2022-11-14T09:51:36.193Z,95022.56
2022-11-14T09:54:28.203Z,95014.28
2022-11-14T09:57:19.287Z,95022.34
2022-11-14T10:00:14.094Z,95032.84
2022-11-14T10:03:28.598Z,95033.59
2022-11-14T10:06:32.325Z,95042.31
2022-11-14T10:09:35.891Z,95044.75
2022-11-14T10:12:28.521Z,95040.53
2022-11-14T10:15:23.087Z,95039.31
2022-11-14T10:18:30.744Z,95030.09
2022-11-14T10:22:01.720Z,95034.41
2022-11-14T10:25:24.502Z,95042.06
2022-11-14T10:28:32.761Z,95044.63
2022-11-14T10:31:49.247Z,95049.09
2022-11-14T10:34:49.513Z,95048.47
2022-11-14T10:37:44.967Z,95043.41
2022-11-14T10:41:05.073Z,95052.19
2022-11-14T10:43:51.809Z,95058.22
2022-11-14T10:46:41.722Z,95055.31
2022-11-14T10:49:32.618Z,95066.00
2022-11-14T10:52:20.696Z,95061.50
2022-11-14T10:55:17.687Z,95068.91
2022-11-14T10:58:13.603Z,95067.50
2022-11-14T11:01:36.078Z,95073.03
2022-11-14T11:04:27.505Z,95071.03
2022-11-14T11:07:32.850Z,95068.78
2022-11-14T11:10:42.674Z,95070.00
2022-11-14T11:13:32.840Z,95071.22
2022-11-14T11:16:21.638Z,95066.97
2022-11-14T11:19:27.243Z,95057.44
2022-11-14T11:22:38.830Z,95056.06
2022-11-14T11:25:28.475Z,95058.63
2022-11-14T11:28:30.512Z,95062.00
2022-11-14T11:31:25.021Z,95060.34
2022-11-14T11:34:10.354Z,95060.59
2022-11-14T11:40:19.348Z,95061.72
2022-11-14T11:43:38.939Z,95067.94
2022-11-14T11:46:34.362Z,95063.34
2022-11-14T11:49:23.838Z,95064.66
2022-11-14T11:52:17.845Z,95069.19
2022-11-14T11:55:09.183Z,95075.50
2022-11-14T12:00:55.176Z,95067.66
2022-11-14T12:03:45.404Z,95068.22
2022-11-14T12:06:40.116Z,95070.56
2022-11-14T12:10:08.358Z,95072.16
2022-11-14T12:12:45.314Z,95061.00
2022-11-14T12:15:47.196Z,95064.22
2022-11-14T12:18:36.050Z,95070.84
2022-11-14T12:21:41.550Z,95074.88
2022-11-14T12:24:26.541Z,95069.56
2022-11-14T12:27:15.641Z,95071.66
2022-11-14T12:30:19.035Z,95074.88
2022-11-14T12:33:15.952Z,95078.56
2022-11-14T12:36:04.474Z,95075.84
2022-11-14T12:38:53.804Z,95081.50
2022-11-14T12:41:40.242Z,95080.78
2022-11-14T12:44:28.332Z,95072.91
2022-11-14T12:47:13.752Z,95075.53
2022-11-14T12:50:00.678Z,95069.03
2022-11-14T12:52:54.824Z,95072.91
2022-11-14T12:55:46.305Z,95068.81
2022-11-14T12:58:59.065Z,95070.13
2022-11-14T13:01:56.910Z,95059.09
2022-11-14T13:04:42.381Z,95071.31
2022-11-14T13:07:34.732Z,95077.88
2022-11-14T13:10:27.958Z,95077.06
2022-11-14T13:13:34.485Z,95076.06
2022-11-14T13:16:44.555Z,95081.97
2022-11-14T13:19:48.288Z,95081.88
2022-11-14T13:22:37.116Z,95079.59
2022-11-14T13:25:23.718Z,95081.47
2022-11-14T13:28:48.051Z,95076.91
2022-11-14T13:31:36.204Z,95078.81
2022-11-14T13:34:37.067Z,95073.50
2022-11-14T13:37:44.039Z,95080.09
2022-11-14T13:40:43.603Z,95077.09
2022-11-14T13:43:53.463Z,95077.25
2022-11-14T13:47:13.986Z,95074.09
2022-11-14T13:50:13.966Z,95076.22
2022-11-14T13:52:59.420Z,95070.94
2022-11-14T13:55:56.921Z,95075.63
2022-11-14T13:58:46.007Z,95079.47
2022-11-14T14:01:49.293Z,95076.47
2022-11-14T14:05:07.167Z,95068.56
2022-11-14T14:08:29.159Z,95071.91
2022-11-14T14:11:51.915Z,95078.44
2022-11-14T14:15:01.297Z,95075.72
2022-11-14T14:17:58.561Z,95079.31
2022-11-14T14:21:02.319Z,95082.41
2022-11-14T14:24:11.927Z,95078.84
2022-11-14T14:27:22.981Z,95078.00
2022-11-14T14:30:09.897Z,95080.03
2022-11-14T14:33:09.870Z,95073.06
2022-11-14T14:35:54.949Z,95077.28
2022-11-14T14:38:40.235Z,95073.38
2022-11-14T14:41:30.779Z,95084.03
2022-11-14T14:44:37.643Z,95080.63
2022-11-14T14:47:38.120Z,95077.69
2022-11-14T14:50:35.688Z,95079.97
2022-11-14T14:53:32.023Z,95076.91
2022-11-14T14:56:22.555Z,95080.38
2022-11-14T14:59:18.820Z,95073.28
2022-11-14T15:02:08.387Z,95071.31
2022-11-14T15:04:54.183Z,95072.56
2022-11-14T15:07:40.036Z,95070.09
2022-11-14T15:10:30.202Z,95070.25
2022-11-14T15:13:17.887Z,95071.81
2022-11-14T15:16:04.529Z,95065.16
2022-11-14T15:18:52.845Z,95068.75
2022-11-14T15:21:38.208Z,95064.13
2022-11-14T15:24:23.994Z,95067.81
2022-11-14T15:27:12.337Z,95069.06
2022-11-14T15:30:04.940Z,95070.19
2022-11-14T15:32:53.468Z,95072.31
2022-11-14T15:35:40.194Z,95071.53
2022-11-14T15:41:32.685Z,95068.47
2022-11-14T15:44:34.202Z,95062.72
2022-11-14T15:47:28.437Z,95068.38
2022-11-14T15:50:13.469Z,95059.34
2022-11-14T15:53:06.153Z,95062.16
2022-11-14T15:55:51.625Z,95061.78
2022-11-14T15:58:36.855Z,95055.66
2022-11-14T16:01:26.004Z,95054.56
2022-11-14T16:04:17.325Z,95055.34
2022-11-14T16:07:02.629Z,95060.31
2022-11-14T16:09:48.343Z,95070.63
2022-11-14T16:12:33.773Z,95068.25
2022-11-14T16:15:20.376Z,95075.84
2022-11-14T16:18:06.067Z,95070.41
2022-11-14T16:20:51.827Z,95074.22
2022-11-14T16:23:37.151Z,95079.91
2022-11-14T16:26:22.361Z,95070.59
2022-11-14T16:29:07.968Z,95073.84
2022-11-14T16:31:53.854Z,95079.16
2022-11-14T16:34:38.831Z,95074.84
2022-11-14T16:37:25.225Z,95081.09
2022-11-14T16:40:16.485Z,95078.47
2022-11-14T16:43:01.694Z,95085.47
2022-11-14T16:45:46.753Z,95079.66
2022-11-14T16:48:32.387Z,95087.28
2022-11-14T16:51:46.193Z,95086.88
2022-11-14T16:54:22.382Z,95089.72
2022-11-14T16:57:07.599Z,95081.69
2022-11-14T16:59:52.734Z,95086.31
2022-11-14T17:02:40.377Z,95086.63
2022-11-14T17:05:25.483Z,95084.41
2022-11-14T17:08:11.032Z,95087.38
2022-11-14T17:10:56.125Z,95086.31
2022-11-14T17:13:41.240Z,95089.28
2022-11-14T17:16:26.301Z,95090.78
2022-11-14T17:19:11.616Z,95087.97
2022-11-14T17:21:57.082Z,95083.47
2022-11-14T17:24:42.730Z,95081.31
2022-11-14T17:27:27.653Z,95079.69
2022-11-14T17:30:13.274Z,95077.41
2022-11-14T17:32:58.437Z,95091.19
2022-11-14T17:35:43.660Z,95090.91
2022-11-14T17:38:32.001Z,95100.09
2022-11-14T17:41:17.299Z,95093.47
2022-11-14T17:44:03.587Z,95095.06
2022-11-14T17:46:53.687Z,95088.44
2022-11-14T17:49:38.677Z,95091.66
2022-11-14T17:52:24.037Z,95096.50
2022-11-14T17:55:09.296Z,95086.00
2022-11-14T17:57:54.497Z,95092.34
2022-11-14T18:00:39.802Z,95088.66
2022-11-14T18:03:26.394Z,95086.69
2022-11-14T18:06:16.556Z,95093.97
2022-11-14T18:09:08.096Z,95086.97
2022-11-14T18:11:55.553Z,95088.72
2022-11-14T18:14:40.701Z,95086.28
2022-11-14T18:17:27.123Z,95085.06
2022-11-14T18:20:12.464Z,95090.22
2022-11-14T18:22:57.389Z,95093.84
2022-11-14T18:25:42.813Z,95091.94
2022-11-14T18:28:28.203Z,95096.59
2022-11-14T18:31:13.942Z,95098.81
2022-11-14T18:33:58.911Z,95101.00
2022-11-14T18:36:44.124Z,95102.53
2022-11-14T18:39:30.637Z,95098.97
2022-11-14T18:42:15.857Z,95102.44
2022-11-14T18:45:01.319Z,95095.66
2022-11-14T18:47:49.470Z,95094.06
2022-11-14T18:50:34.538Z,95093.63
2022-11-14T18:53:19.859Z,95103.66
2022-11-14T18:56:11.105Z,95104.00
2022-11-14T18:58:57.062Z,95102.19
2022-11-14T19:01:42.615Z,95103.00
2022-11-14T19:04:27.799Z,95099.75
2022-11-14T19:07:14.465Z,95096.13
2022-11-14T19:09:59.971Z,95103.97
2022-11-14T19:12:48.474Z,95101.03
2022-11-14T19:15:33.647Z,95095.03
2022-11-14T19:18:18.929Z,95098.94
2022-11-14T19:21:04.288Z,95101.75
2022-11-14T19:23:50.660Z,95096.16
2022-11-14T19:26:36.436Z,95093.50
2022-11-14T19:29:21.459Z,95097.22
2022-11-14T19:32:07.050Z,95096.28
2022-11-14T19:34:52.202Z,95086.97
2022-11-14T19:37:37.541Z,95092.09
2022-11-14T19:40:22.814Z,95091.50
2022-11-14T19:43:10.659Z,95098.38
2022-11-14T19:46:02.075Z,95100.44
2022-11-14T19:48:47.573Z,95094.41
2022-11-14T19:51:33.282Z,95093.66
2022-11-14T19:54:18.642Z,95093.56
2022-11-14T19:57:03.842Z,95095.75
2022-11-14T19:59:49.006Z,95088.31
2022-11-14T20:02:34.132Z,95086.09
2022-11-14T20:05:19.472Z,95086.91
2022-11-14T20:08:05.073Z,95091.44
2022-11-14T20:11:06.735Z,95081.66
2022-11-14T20:13:52.074Z,95087.78
2022-11-14T20:16:37.906Z,95090.34
2022-11-14T20:19:23.120Z,95082.09
2022-11-14T20:22:08.354Z,95087.88
2022-11-14T20:24:53.656Z,95084.03
2022-11-14T20:27:39.104Z,95083.53
2022-11-14T20:30:24.257Z,95083.91
2022-11-14T20:33:09.611Z,95080.75
2022-11-14T20:35:55.149Z,95077.16
2022-11-14T20:38:40.470Z,95078.94
2022-11-14T20:41:25.725Z,95083.56
2022-11-14T20:44:11.260Z,95086.09
2022-11-14T20:46:56.981Z,95077.56
2022-11-14T20:49:43.390Z,95068.75
2022-11-14T20:52:28.416Z,95069.06
2022-11-14T20:55:15.488Z,95065.34
2022-11-14T20:58:00.682Z,95060.69
2022-11-14T21:00:45.849Z,95064.72
2022-11-14T21:03:31.540Z,95065.00
2022-11-14T21:06:17.532Z,95057.91
2022-11-14T21:09:02.712Z,95061.91
2022-11-14T21:11:48.003Z,95056.44
2022-11-14T21:14:33.177Z,95052.19
2022-11-14T21:17:19.035Z,95058.56
2022-11-14T21:20:04.742Z,95051.53
2022-11-14T21:22:49.785Z,95056.38
2022-11-14T21:25:35.531Z,95056.78
2022-11-14T21:28:20.723Z,95057.13
2022-11-14T21:31:31.659Z,95053.97
2022-11-14T21:34:18.054Z,95050.25
2022-11-14T21:37:03.212Z,95055.34
2022-11-14T21:39:49.065Z,95047.31
2022-11-14T21:42:34.485Z,95049.94
2022-11-14T21:45:19.630Z,95042.31
2022-11-14T21:48:04.690Z,95044.91
2022-11-14T21:50:49.896Z,95043.31
2022-11-14T21:53:35.973Z,95046.34
2022-11-14T21:56:22.408Z,95040.22
2022-11-14T21:59:18.339Z,95042.63
2022-11-14T22:02:22.762Z,95039.88
2022-11-14T22:05:08.184Z,95038.56
2022-11-14T22:07:53.143Z,95040.41
2022-11-14T22:10:38.542Z,95035.00
2022-11-14T22:13:23.477Z,95039.22
2022-11-14T22:16:10.454Z,95040.75
2022-11-14T22:19:02.000Z,95034.94
2022-11-14T22:21:47.605Z,95038.19
2022-11-14T22:24:32.965Z,95031.25
2022-11-14T22:27:18.244Z,95036.78
2022-11-14T22:30:03.657Z,95037.47
2022-11-14T22:32:51.612Z,95042.19
2022-11-14T22:35:36.523Z,95044.44
2022-11-14T22:38:21.379Z,95044.84
2022-11-14T22:41:09.666Z,95051.78
2022-11-14T22:43:55.926Z,95055.16
2022-11-14T22:46:41.143Z,95057.41
2022-11-14T22:49:26.495Z,95056.88
2022-11-14T22:52:11.670Z,95061.06
2022-11-14T22:54:57.072Z,95058.50
2022-11-14T22:57:42.056Z,95056.47
2022-11-14T23:00:27.217Z,95057.13
2022-11-14T23:03:16.226Z,95057.13
2022-11-14T23:06:09.442Z,95054.16
2022-11-14T23:08:55.793Z,95054.38
2022-11-14T23:11:41.142Z,95051.06
2022-11-14T23:14:26.550Z,95040.66
2022-11-14T23:17:14.373Z,95040.88
2022-11-14T23:19:59.509Z,95040.88
2022-11-14T23:22:44.836Z,95036.28
2022-11-14T23:25:31.620Z,95033.47
2022-11-14T23:28:16.876Z,95035.59
2022-11-14T23:31:02.827Z,95028.34
2022-11-14T23:33:49.367Z,95025.09
2022-11-14T23:36:34.666Z,95021.22
2022-11-14T23:39:19.665Z,95018.91
2022-11-14T23:42:05.207Z,95016.25
2022-11-14T23:44:50.189Z,95010.22
2022-11-14T23:47:35.532Z,95012.06
2022-11-14T23:50:20.445Z,95002.56
2022-11-14T23:53:05.647Z,94996.16
2022-11-14T23:55:55.571Z,94999.84
2022-11-14T23:58:41.595Z,94990.16
